createdAt,value
2022-10-05T00:02:32.473Z,22.61
2022-10-05T00:07:36.417Z,22.58
2022-10-05T00:12:40.024Z,22.56
2022-10-05T00:17:46.009Z,22.58
2022-10-05T00:22:55.856Z,22.63
2022-10-05T00:28:00.974Z,22.66
2022-10-05T00:33:04.541Z,22.66
2022-10-05T00:38:09.115Z,22.68
2022-10-05T00:43:28.292Z,22.72
2022-10-05T00:48:42.658Z,22.75
2022-10-05T00:53:54.985Z,22.70
2022-10-05T00:59:13.560Z,22.62
2022-10-05T01:04:29.962Z,22.55
2022-10-05T01:09:56.176Z,22.48
2022-10-05T01:15:07.306Z,22.43
2022-10-05T01:20:32.947Z,22.41
2022-10-05T01:25:58.783Z,22.42
2022-10-05T01:31:20.901Z,22.42
2022-10-05T01:36:53.335Z,22.39
2022-10-05T01:42:30.723Z,22.41
2022-10-05T01:47:48.083Z,22.41
2022-10-05T01:53:00.460Z,22.38
2022-10-05T01:58:17.256Z,22.34
2022-10-05T02:03:29.548Z,22.32
2022-10-05T02:09:20.267Z,22.30
2022-10-05T02:14:34.811Z,22.25
2022-10-05T02:20:10.522Z,22.21
2022-10-05T02:25:16.992Z,22.20
2022-10-05T02:30:21.411Z,22.24
2022-10-05T02:35:27.229Z,22.28
2022-10-05T02:40:39.757Z,22.34
2022-10-05T02:45:54.121Z,22.38
2022-10-05T02:51:20.563Z,22.43
2022-10-05T02:56:29.362Z,22.44
2022-10-05T03:01:52.815Z,22.45
2022-10-05T03:07:25.956Z,22.45
2022-10-05T03:13:08.291Z,22.39
2022-10-05T03:18:40.457Z,22.37
2022-10-05T03:24:13.171Z,22.33
2022-10-05T03:29:29.063Z,22.27
2022-10-05T03:34:53.526Z,22.25
2022-10-05T03:40:08.374Z,22.24
2022-10-05T03:45:32.119Z,22.27
2022-10-05T03:51:01.131Z,22.26
2022-10-05T03:56:41.179Z,22.25
2022-10-05T04:02:01.183Z,22.26
2022-10-05T04:07:11.086Z,22.26
2022-10-05T04:12:37.440Z,22.28
2022-10-05T04:17:46.826Z,22.28
2022-10-05T04:23:33.735Z,22.30
2022-10-05T04:28:54.706Z,22.39
2022-10-05T04:34:16.006Z,22.49
2022-10-05T04:39:48.455Z,22.58
2022-10-05T04:45:06.811Z,22.64
2022-10-05T04:50:31.487Z,22.71
2022-10-05T04:56:07.132Z,22.83
2022-10-05T05:01:32.492Z,23.20
2022-10-05T05:06:59.367Z,24.05
2022-10-05T05:12:40.041Z,24.54
2022-10-05T05:18:08.589Z,24.84
2022-10-05T05:23:42.267Z,24.96
2022-10-05T05:28:55.639Z,25.01
2022-10-05T05:34:22.499Z,24.84
2022-10-05T05:39:55.435Z,24.70
2022-10-05T05:45:14.739Z,24.66
2022-10-05T05:50:34.474Z,24.67
2022-10-05T05:55:45.886Z,24.67
2022-10-05T06:01:00.074Z,24.69
2022-10-05T06:06:11.672Z,24.70
2022-10-05T06:11:35.648Z,24.72
2022-10-05T06:16:53.943Z,24.79
2022-10-05T06:22:37.572Z,24.82
2022-10-05T06:28:11.204Z,24.89
2022-10-05T06:33:25.407Z,25.06
2022-10-05T06:38:41.552Z,25.14
2022-10-05T06:43:51.822Z,25.15
2022-10-05T06:49:48.200Z,25.12
2022-10-05T06:55:30.510Z,25.08
2022-10-05T07:00:47.131Z,25.19
2022-10-05T07:06:15.955Z,25.32
2022-10-05T07:12:00.894Z,25.41
2022-10-05T07:17:25.051Z,25.47
2022-10-05T07:22:46.951Z,25.52
2022-10-05T07:28:13.575Z,25.59
2022-10-05T07:33:28.164Z,25.64
2022-10-05T07:38:38.084Z,25.65
2022-10-05T07:44:02.834Z,25.73
2022-10-05T07:49:17.832Z,25.78
2022-10-05T07:54:54.842Z,25.97
2022-10-05T08:00:07.664Z,26.21
2022-10-05T08:05:28.932Z,26.32
2022-10-05T08:10:41.139Z,26.32
2022-10-05T08:15:47.414Z,26.29
2022-10-05T08:20:58.752Z,26.30
2022-10-05T08:26:02.048Z,26.34
2022-10-05T08:31:16.654Z,26.38
2022-10-05T08:36:28.860Z,26.43
2022-10-05T08:41:45.298Z,26.47
2022-10-05T08:47:21.672Z,26.50
2022-10-05T08:52:43.784Z,26.56
2022-10-05T08:57:50.386Z,26.65
2022-10-05T09:03:15.339Z,26.71
2022-10-05T09:08:40.920Z,26.75
2022-10-05T09:14:06.272Z,26.81
2022-10-05T09:19:30.771Z,26.90
2022-10-05T09:24:53.929Z,26.87
2022-10-05T09:30:22.667Z,26.87
2022-10-05T09:35:57.004Z,27.00
2022-10-05T09:41:23.575Z,26.94
2022-10-05T09:46:45.697Z,26.93
2022-10-05T09:52:03.475Z,27.02
2022-10-05T09:57:31.394Z,26.96
2022-10-05T10:02:52.305Z,26.95
2022-10-05T10:08:21.077Z,26.89
2022-10-05T10:13:24.471Z,26.86
2022-10-05T10:18:48.778Z,26.81
2022-10-05T10:24:05.752Z,26.75
2022-10-05T10:29:34.850Z,26.67
2022-10-05T10:35:12.186Z,26.67
2022-10-05T10:40:30.997Z,26.66
2022-10-05T10:45:34.300Z,26.66
2022-10-05T10:51:01.847Z,26.65
2022-10-05T10:56:26.888Z,26.65
2022-10-05T11:01:55.798Z,26.67
2022-10-05T11:07:10.334Z,26.59
2022-10-05T11:12:50.850Z,26.54
2022-10-05T11:18:17.966Z,26.57
2022-10-05T11:23:38.616Z,26.57
2022-10-05T11:28:51.775Z,26.54
2022-10-05T11:33:58.475Z,26.59
2022-10-05T11:39:07.582Z,26.63
2022-10-05T11:44:49.633Z,26.65
2022-10-05T11:50:10.719Z,26.61
2022-10-05T11:55:20.384Z,26.60
2022-10-05T12:00:29.403Z,26.59
2022-10-05T12:06:01.153Z,26.59
2022-10-05T12:11:06.974Z,26.52
2022-10-05T12:16:20.733Z,26.53
2022-10-05T12:21:36.690Z,26.48
2022-10-05T12:26:55.596Z,26.41
2022-10-05T12:32:03.098Z,26.38
2022-10-05T12:37:40.456Z,26.38
2022-10-05T12:43:17.689Z,26.28
2022-10-05T12:48:58.069Z,26.23
2022-10-05T12:54:32.378Z,26.18
2022-10-05T12:59:46.584Z,26.15
2022-10-05T13:05:02.755Z,26.13
2022-10-05T13:10:21.685Z,26.11
2022-10-05T13:15:28.212Z,26.05
2022-10-05T13:20:50.085Z,26.00
2022-10-05T13:26:12.526Z,25.89
2022-10-05T13:31:29.315Z,25.88
2022-10-05T13:36:41.712Z,25.91
2022-10-05T13:42:12.698Z,25.89
2022-10-05T13:47:29.687Z,25.85
2022-10-05T13:53:11.454Z,25.83
2022-10-05T13:58:32.548Z,25.82
2022-10-05T14:03:38.546Z,25.78
2022-10-05T14:08:51.550Z,25.71
2022-10-05T14:14:12.891Z,25.63
2022-10-05T14:19:19.517Z,25.53
2022-10-05T14:24:45.380Z,25.45
2022-10-05T14:30:14.126Z,25.32
2022-10-05T14:35:20.304Z,25.24
2022-10-05T14:40:36.665Z,25.16
2022-10-05T14:45:56.429Z,25.07
2022-10-05T14:51:11.415Z,24.95
2022-10-05T14:56:35.802Z,24.89
2022-10-05T15:01:49.375Z,24.78
2022-10-05T15:07:11.617Z,24.62
2022-10-05T15:12:18.817Z,24.45
2022-10-05T15:17:36.885Z,24.34
2022-10-05T15:22:48.308Z,24.22
2022-10-05T15:28:33.493Z,24.10
2022-10-05T15:33:45.597Z,23.99
2022-10-05T15:38:59.522Z,23.87
2022-10-05T15:44:34.011Z,23.84
2022-10-05T15:49:49.229Z,23.76
2022-10-05T15:55:26.983Z,23.71
2022-10-05T16:00:37.927Z,23.65
2022-10-05T16:05:48.135Z,23.61
2022-10-05T16:10:51.994Z,23.56
2022-10-05T16:16:21.047Z,23.53
2022-10-05T16:21:48.667Z,23.50
2022-10-05T16:27:04.391Z,23.45
2022-10-05T16:32:19.395Z,23.43
2022-10-05T16:37:49.506Z,23.41
2022-10-05T16:43:10.287Z,23.38
2022-10-05T16:48:29.051Z,23.36
2022-10-05T16:53:50.024Z,23.35
2022-10-05T16:58:53.351Z,23.36
2022-10-05T17:04:41.987Z,23.33
2022-10-05T17:10:22.798Z,23.34
2022-10-05T17:15:55.474Z,23.33
2022-10-05T17:21:09.005Z,23.34
2022-10-05T17:26:54.501Z,23.32
2022-10-05T17:32:07.306Z,23.30
2022-10-05T17:37:37.371Z,23.30
2022-10-05T17:42:40.515Z,23.26
2022-10-05T17:48:05.367Z,23.26
2022-10-05T17:53:34.924Z,23.26
2022-10-05T17:58:44.584Z,23.25
2022-10-05T18:03:49.620Z,23.25
2022-10-05T18:09:16.770Z,23.23
2022-10-05T18:14:25.033Z,23.22
2022-10-05T18:19:30.306Z,23.20
2022-10-05T18:24:51.627Z,23.18
2022-10-05T18:30:18.235Z,23.14
2022-10-05T18:35:33.288Z,23.12
2022-10-05T18:40:46.716Z,23.11
2022-10-05T18:46:02.207Z,23.09
2022-10-05T18:51:36.425Z,23.09
2022-10-05T18:56:50.900Z,23.07
2022-10-05T19:02:12.855Z,23.06
2022-10-05T19:07:30.240Z,23.05
2022-10-05T19:13:01.935Z,23.04
2022-10-05T19:18:43.570Z,23.03
2022-10-05T19:24:18.970Z,23.02
2022-10-05T19:29:55.482Z,23.04
2022-10-05T19:35:14.179Z,23.01
2022-10-05T19:40:40.685Z,22.98
2022-10-05T19:46:19.325Z,22.93
2022-10-05T19:51:31.031Z,22.91
2022-10-05T19:56:46.940Z,22.88
2022-10-05T20:01:53.010Z,22.85
2022-10-05T20:06:56.538Z,22.82
2022-10-05T20:12:00.237Z,22.80
2022-10-05T20:17:16.337Z,22.78
2022-10-05T20:22:28.577Z,22.72
2022-10-05T20:27:50.510Z,22.71
2022-10-05T20:32:59.365Z,22.68
2022-10-05T20:38:03.503Z,22.65
2022-10-05T20:43:07.631Z,22.62
2022-10-05T20:48:11.789Z,22.59
2022-10-05T20:53:15.272Z,22.58
2022-10-05T20:58:18.790Z,22.54
2022-10-05T21:03:22.389Z,22.50
2022-10-05T21:08:26.379Z,22.43
2022-10-05T21:13:30.298Z,22.42
2022-10-05T21:18:33.844Z,22.41
2022-10-05T21:23:37.212Z,22.38
2022-10-05T21:28:41.614Z,22.36
2022-10-05T21:33:45.818Z,22.32
2022-10-05T21:38:50.491Z,22.29
2022-10-05T21:43:54.275Z,22.22
2022-10-05T21:48:57.714Z,22.22
2022-10-05T21:54:13.373Z,22.19
2022-10-05T21:59:21.238Z,22.17
2022-10-05T22:04:25.782Z,22.16
2022-10-05T22:09:30.068Z,22.14
2022-10-05T22:14:33.462Z,22.13
2022-10-05T22:19:37.173Z,22.10
2022-10-05T22:24:40.583Z,22.06
2022-10-05T22:29:44.727Z,22.04
2022-10-05T22:34:48.671Z,22.02
2022-10-05T22:39:52.175Z,21.98
2022-10-05T22:44:55.536Z,21.97
2022-10-05T22:49:58.858Z,21.99
2022-10-05T22:55:02.067Z,21.98
2022-10-05T23:00:10.386Z,21.97
2022-10-05T23:05:16.750Z,21.99
2022-10-05T23:10:23.980Z,22.02
2022-10-05T23:15:28.229Z,22.01
2022-10-05T23:20:31.557Z,22.00
2022-10-05T23:25:35.262Z,21.99
2022-10-05T23:30:38.668Z,21.97
2022-10-05T23:35:41.970Z,22.00
2022-10-05T23:40:46.809Z,22.00
2022-10-05T23:45:50.980Z,21.99
2022-10-05T23:50:54.752Z,21.96
2022-10-05T23:55:58.230Z,21.93
